Time;durP1;ratioP1;P1;durP2;ratioP2;P2;SDS_P1;SDS_P2;PMS_P1;PMS_P2;Temp;Humidity;BMP_temperature;BMP_pressure;BME280_temperature;BME280_humidity;BME280_pressure;Samples;Min_cycle;Max_cycle;Signal;HPM_P1;HPM_P2
2022/09/02 00:01:13;;;;;;;;;;;18.60;99.50;;;;;;5022959;28;20210;-62
2022/09/02 00:03:41;;;;;;;;;;;18.40;99.80;;;;;;5025059;28;20207;-61
2022/09/02 00:06:09;;;;;;;;;;;18.30;99.90;;;;;;5023166;28;20219;-62
2022/09/02 00:08:37;;;;;;;;;;;18.30;99.90;;;;;;5024878;28;20208;-62
2022/09/02 00:11:05;;;;;;;;;;;18.40;99.90;;;;;;5023553;28;20127;-62
2022/09/02 00:13:35;;;;;;;;;;;18.20;99.90;;;;;;5024190;28;20212;-62
2022/09/02 00:16:03;;;;;;;;;;;18.00;99.90;;;;;;5023493;28;20098;-62
2022/09/02 00:18:32;;;;;;;;;;;18.00;99.90;;;;;;5024868;28;20314;-61
2022/09/02 00:21:01;;;;;;;;;;;17.80;99.90;;;;;;5023859;28;20205;-62
2022/09/02 00:23:29;;;;;;;;;;;17.70;99.90;;;;;;5024212;28;20232;-62
2022/09/02 00:25:57;;;;;;;;;;;17.70;99.90;;;;;;5025545;28;20267;-62
2022/09/02 00:28:25;;;;;;;;;;;17.70;99.90;;;;;;5025285;28;20738;-62
2022/09/02 00:30:53;;;;;;;;;;;17.80;99.90;;;;;;5024611;28;20274;-62
2022/09/02 00:33:21;;;;;;;;;;;17.90;99.90;;;;;;5024800;28;20676;-61
2022/09/02 00:35:50;;;;;;;;;;;18.00;99.90;;;;;;5038808;28;20970;-62
2022/09/02 00:38:18;;;;;;;;;;;18.00;99.90;;;;;;5023569;28;20147;-62
2022/09/02 00:40:47;;;;;;;;;;;18.10;99.90;;;;;;5023914;28;20375;-61
2022/09/02 00:43:22;;;;;;;;;;;18.10;99.90;;;;;;5024273;28;20115;-62
2022/09/02 00:45:50;;;;;;;;;;;18.20;99.90;;;;;;5022927;28;20255;-62
2022/09/02 00:48:18;;;;;;;;;;;18.20;99.90;;;;;;5023634;28;20678;-62
2022/09/02 00:50:45;;;;;;;;;;;18.20;99.90;;;;;;5021640;28;20160;-62
2022/09/02 00:53:15;;;;;;;;;;;18.20;99.90;;;;;;5024194;28;20137;-64
2022/09/02 00:55:44;;;;;;;;;;;18.10;99.90;;;;;;5025364;28;22219;-64
2022/09/02 00:58:15;;;;;;;;;;;18.00;99.90;;;;;;5021659;28;20911;-64
2022/09/02 01:00:45;;;;;;;;;;;17.90;99.90;;;;;;5020630;28;20268;-64
2022/09/02 01:03:14;;;;;;;;;;;17.70;99.90;;;;;;5023771;28;20270;-64
2022/09/02 01:05:44;;;;;;;;;;;17.90;99.90;;;;;;5022012;28;20203;-64
2022/09/02 01:08:13;;;;;;;;;;;17.70;99.90;;;;;;5023554;28;20218;-64
2022/09/02 01:10:43;;;;;;;;;;;17.60;99.90;;;;;;5022908;28;20191;-65
2022/09/02 01:13:18;;;;;;;;;;;17.90;99.90;;;;;;5023578;28;20359;-65
2022/09/02 01:15:47;;;;;;;;;;;17.90;99.90;;;;;;5023585;28;20279;-64
2022/09/02 01:18:17;;;;;;;;;;;17.80;99.90;;;;;;5023236;28;20202;-65
2022/09/02 01:20:45;;;;;;;;;;;17.80;99.90;;;;;;5023926;28;20206;-65
2022/09/02 01:23:15;;;;;;;;;;;17.80;99.90;;;;;;5022223;28;20198;-65
2022/09/02 01:25:43;;;;;;;;;;;17.70;99.90;;;;;;5021876;28;20237;-65
2022/09/02 01:28:13;;;;;;;;;;;17.60;99.90;;;;;;5022714;28;20228;-65
2022/09/02 01:30:42;;;;;;;;;;;17.60;99.90;;;;;;5023758;28;20250;-65
2022/09/02 01:33:11;;;;;;;;;;;17.70;99.90;;;;;;5029964;28;20209;-65
2022/09/02 01:35:39;;;;;;;;;;;17.70;99.90;;;;;;5025903;28;20202;-65
2022/09/02 01:38:07;;;;;;;;;;;17.70;99.90;;;;;;5023210;28;20229;-65
2022/09/02 01:40:36;;;;;;;;;;;17.80;99.90;;;;;;5026552;28;20196;-64
2022/09/02 01:43:05;;;;;;;;;;;17.80;99.90;;;;;;5022254;28;20202;-65
2022/09/02 01:45:34;;;;;;;;;;;17.70;99.90;;;;;;5023542;28;20238;-64
2022/09/02 01:48:02;;;;;;;;;;;17.60;99.90;;;;;;5023989;28;20683;-65
2022/09/02 01:50:30;;;;;;;;;;;17.70;99.90;;;;;;5022613;28;20200;-64
2022/09/02 01:53:00;;;;;;;;;;;17.70;99.90;;;;;;5022607;28;20214;-64
2022/09/02 01:55:28;;;;;;;;;;;17.50;99.90;;;;;;5021623;28;20195;-65
2022/09/02 01:57:57;;;;;;;;;;;17.50;99.90;;;;;;5022030;28;20702;-65
2022/09/02 02:00:25;;;;;;;;;;;17.40;99.90;;;;;;5017946;28;20195;-64
2022/09/02 02:02:53;;;;;;;;;;;17.50;99.90;;;;;;5023487;28;20226;-64
2022/09/02 02:05:21;;;;;;;;;;;17.50;99.90;;;;;;5022418;28;20248;-65
2022/09/02 02:07:49;;;;;;;;;;;17.40;99.90;;;;;;5022497;28;20313;-65
2022/09/02 02:10:18;;;;;;;;;;;17.50;99.90;;;;;;5021736;28;20214;-65
2022/09/02 02:12:47;;;;;;;;;;;17.70;99.90;;;;;;5023359;28;20297;-65
2022/09/02 02:15:18;;;;;;;;;;;17.90;99.90;;;;;;5023738;28;20202;-65
2022/09/02 02:17:46;;;;;;;;;;;18.20;99.90;;;;;;5021484;28;20198;-65
2022/09/02 02:20:15;;;;;;;;;;;18.30;99.90;;;;;;5022679;28;20268;-64
2022/09/02 02:22:43;;;;;;;;;;;18.20;99.90;;;;;;5021341;28;20197;-65
2022/09/02 02:25:13;;;;;;;;;;;18.20;99.90;;;;;;5022217;28;20198;-65
2022/09/02 02:27:41;;;;;;;;;;;18.10;99.90;;;;;;5023022;28;20252;-64
2022/09/02 02:30:11;;;;;;;;;;;17.90;99.90;;;;;;5023339;28;20739;-65
2022/09/02 02:32:41;;;;;;;;;;;18.10;99.90;;;;;;5023404;28;20206;-64
2022/09/02 02:35:10;;;;;;;;;;;18.10;99.90;;;;;;5021877;28;20236;-65
2022/09/02 02:37:38;;;;;;;;;;;18.30;99.90;;;;;;5022587;28;20847;-64
2022/09/02 02:40:06;;;;;;;;;;;18.10;99.90;;;;;;5022027;28;20199;-65
2022/09/02 02:42:35;;;;;;;;;;;18.20;99.90;;;;;;5020196;28;20202;-62
2022/09/02 02:45:08;;;;;;;;;;;18.30;99.90;;;;;;5022529;28;20211;-62
2022/09/02 02:47:44;;;;;;;;;;;18.30;99.90;;;;;;5021852;28;20203;-62
2022/09/02 02:50:14;;;;;;;;;;;18.50;99.90;;;;;;5020362;28;20199;-62
2022/09/02 02:52:42;;;;;;;;;;;18.40;99.90;;;;;;5023378;28;20202;-64
2022/09/02 02:55:11;;;;;;;;;;;18.40;99.90;;;;;;5022980;28;20206;-63
2022/09/02 02:57:40;;;;;;;;;;;18.50;99.90;;;;;;5023302;28;20199;-64
2022/09/02 03:00:10;;;;;;;;;;;18.50;99.90;;;;;;5024323;28;20266;-63
2022/09/02 03:02:38;;;;;;;;;;;18.60;99.90;;;;;;5025844;28;20203;-63
2022/09/02 03:05:09;;;;;;;;;;;18.50;99.90;;;;;;5027137;28;20202;-63
2022/09/02 03:07:36;;;;;;;;;;;18.60;99.90;;;;;;5024427;28;20191;-63
2022/09/02 03:10:07;;;;;;;;;;;18.40;99.90;;;;;;5033547;28;20211;-63
2022/09/02 03:12:34;;;;;;;;;;;18.30;99.90;;;;;;5074335;23;20206;-70
2022/09/02 03:15:03;;;;;;;;;;;18.30;99.90;;;;;;5044203;28;20201;-69
2022/09/02 03:17:31;;;;;;;;;;;18.30;99.90;;;;;;5043808;28;20223;-69
2022/09/02 03:19:59;;;;;;;;;;;18.20;99.90;;;;;;5045767;28;20206;-69
2022/09/02 03:22:28;;;;;;;;;;;18.00;99.90;;;;;;5041964;28;20209;-69
2022/09/02 03:24:56;;;;;;;;;;;18.20;99.90;;;;;;5042991;28;20697;-69
2022/09/02 03:27:23;;;;;;;;;;;18.10;99.90;;;;;;5042683;28;20206;-69
2022/09/02 03:29:51;;;;;;;;;;;18.00;99.90;;;;;;5043453;28;20220;-68
2022/09/02 03:32:19;;;;;;;;;;;18.00;99.90;;;;;;5040852;28;20252;-69
2022/09/02 03:34:47;;;;;;;;;;;17.90;99.90;;;;;;5052511;28;20681;-69
2022/09/02 03:37:16;;;;;;;;;;;17.80;99.90;;;;;;5054240;28;20198;-68
2022/09/02 03:39:45;;;;;;;;;;;17.80;99.90;;;;;;5041955;28;20194;-68
2022/09/02 03:42:13;;;;;;;;;;;17.90;99.90;;;;;;5042986;28;20741;-69
2022/09/02 03:44:46;;;;;;;;;;;18.00;99.90;;;;;;5041793;28;20281;-69
2022/09/02 03:47:16;;;;;;;;;;;18.00;99.90;;;;;;5040974;28;20690;-68
2022/09/02 03:49:47;;;;;;;;;;;17.90;99.90;;;;;;5046931;28;20622;-68
2022/09/02 03:52:15;;;;;;;;;;;18.00;99.90;;;;;;5038581;28;20202;-69
2022/09/02 03:54:42;;;;;;;;;;;17.90;99.90;;;;;;5047260;28;20198;-69
2022/09/02 03:57:12;;;;;;;;;;;17.80;99.90;;;;;;5042832;28;20202;-68
2022/09/02 03:59:39;;;;;;;;;;;17.90;99.90;;;;;;5041160;28;20202;-68
2022/09/02 04:02:07;;;;;;;;;;;18.20;99.90;;;;;;5042739;28;20659;-68
2022/09/02 04:04:36;;;;;;;;;;;18.30;99.90;;;;;;5043498;28;20216;-68
2022/09/02 04:07:03;;;;;;;;;;;18.30;99.90;;;;;;5040816;28;20220;-68
2022/09/02 04:09:31;;;;;;;;;;;18.30;99.90;;;;;;5041158;28;20267;-68
2022/09/02 04:11:59;;;;;;;;;;;18.20;99.90;;;;;;5041469;28;20207;-69
2022/09/02 04:14:28;;;;;;;;;;;17.90;99.90;;;;;;5042695;28;20211;-69
2022/09/02 04:16:56;;;;;;;;;;;17.90;99.90;;;;;;5041833;28;20243;-68
2022/09/02 04:19:24;;;;;;;;;;;18.10;99.90;;;;;;5041145;28;25179;-68
2022/09/02 04:21:51;;;;;;;;;;;18.40;99.90;;;;;;5039674;28;20069;-67
2022/09/02 04:24:19;;;;;;;;;;;18.30;99.90;;;;;;5031497;28;20887;-67
2022/09/02 04:26:47;;;;;;;;;;;18.20;99.90;;;;;;5036225;28;20466;-66
2022/09/02 04:29:15;;;;;;;;;;;18.40;99.90;;;;;;5036797;28;20998;-66
2022/09/02 04:31:44;;;;;;;;;;;18.50;99.90;;;;;;5035235;28;20209;-67
2022/09/02 04:34:12;;;;;;;;;;;18.50;99.90;;;;;;5041361;28;20217;-66
2022/09/02 04:36:40;;;;;;;;;;;18.50;99.90;;;;;;5041652;28;20749;-67
2022/09/02 04:39:09;;;;;;;;;;;18.50;99.90;;;;;;5035026;28;20198;-67
2022/09/02 04:41:37;;;;;;;;;;;18.50;99.90;;;;;;5034203;28;20718;-66
2022/09/02 04:44:06;;;;;;;;;;;18.60;99.90;;;;;;5032778;28;20220;-66
2022/09/02 04:46:33;;;;;;;;;;;18.60;99.90;;;;;;5033396;28;20272;-67
2022/09/02 04:49:03;;;;;;;;;;;18.70;99.90;;;;;;5033274;28;20204;-66
2022/09/02 04:51:31;;;;;;;;;;;18.50;99.90;;;;;;5033449;28;20195;-67
2022/09/02 04:54:00;;;;;;;;;;;18.50;99.90;;;;;;5033252;28;20671;-65
2022/09/02 04:56:29;;;;;;;;;;;18.70;99.90;;;;;;5036353;28;20213;-67
2022/09/02 04:58:57;;;;;;;;;;;18.60;99.90;;;;;;5043154;28;20198;-67
2022/09/02 05:01:26;;;;;;;;;;;18.60;99.90;;;;;;5040844;28;20644;-67
2022/09/02 05:03:54;;;;;;;;;;;18.50;99.90;;;;;;5033811;28;20207;-66
2022/09/02 05:06:25;;;;;;;;;;;18.30;99.90;;;;;;5034534;28;21252;-67
2022/09/02 05:08:52;;;;;;;;;;;18.30;99.90;;;;;;5034475;28;20218;-67
2022/09/02 05:11:21;;;;;;;;;;;18.20;99.90;;;;;;5034468;28;20222;-68
2022/09/02 05:13:51;;;;;;;;;;;18.30;99.90;;;;;;5033427;28;20159;-67
2022/09/02 05:16:20;;;;;;;;;;;18.10;99.90;;;;;;5032801;28;20091;-67
2022/09/02 05:18:48;;;;;;;;;;;18.30;99.90;;;;;;5033574;28;20232;-67
2022/09/02 05:21:16;;;;;;;;;;;18.30;99.90;;;;;;5032073;28;20561;-66
2022/09/02 05:23:46;;;;;;;;;;;18.40;99.90;;;;;;5031614;28;20098;-67
2022/09/02 05:26:14;;;;;;;;;;;18.40;99.90;;;;;;5031889;28;25058;-68
2022/09/02 05:28:42;;;;;;;;;;;18.40;99.90;;;;;;5033079;28;20543;-67
2022/09/02 05:31:11;;;;;;;;;;;18.10;99.90;;;;;;5036992;28;21049;-67
2022/09/02 05:33:40;;;;;;;;;;;18.10;99.90;;;;;;5036001;28;20202;-67
2022/09/02 05:36:11;;;;;;;;;;;17.90;99.90;;;;;;5031034;28;20793;-66
2022/09/02 05:38:39;;;;;;;;;;;17.70;99.90;;;;;;5033751;28;20264;-67
2022/09/02 05:41:09;;;;;;;;;;;17.50;99.90;;;;;;5028861;28;20069;-67
2022/09/02 05:43:38;;;;;;;;;;;17.40;99.90;;;;;;5032432;28;20292;-67
2022/09/02 05:46:06;;;;;;;;;;;17.20;99.90;;;;;;5032569;28;20224;-67
2022/09/02 05:51:21;;;;;;;;;;;17.10;99.90;;;;;;5033914;28;20377;-67
2022/09/02 05:53:52;;;;;;;;;;;17.20;99.90;;;;;;5037857;28;20067;-67
2022/09/02 05:56:21;;;;;;;;;;;17.20;99.90;;;;;;5041440;28;20227;-68
2022/09/02 05:58:49;;;;;;;;;;;17.30;99.90;;;;;;5033638;28;20319;-67
2022/09/02 06:01:18;;;;;;;;;;;17.30;99.90;;;;;;5034031;28;20206;-67
2022/09/02 06:03:47;;;;;;;;;;;17.20;99.90;;;;;;5032939;28;20692;-67
2022/09/02 06:06:15;;;;;;;;;;;17.20;99.90;;;;;;5032933;28;20714;-66
2022/09/02 06:08:43;;;;;;;;;;;17.20;99.90;;;;;;5031503;28;25107;-68
2022/09/02 06:11:12;;;;;;;;;;;17.10;99.90;;;;;;5035787;28;20108;-67
2022/09/02 06:13:42;;;;;;;;;;;17.20;99.90;;;;;;5038123;28;20326;-68
2022/09/02 06:16:13;;;;;;;;;;;17.20;99.90;;;;;;5030905;28;20312;-67
2022/09/02 06:18:41;;;;;;;;;;;17.40;99.90;;;;;;5032853;28;20203;-67
2022/09/02 06:21:09;;;;;;;;;;;17.30;99.90;;;;;;5049728;28;20608;-68
2022/09/02 06:23:38;;;;;;;;;;;17.40;99.90;;;;;;5031388;28;25064;-66
2022/09/02 06:26:06;;;;;;;;;;;17.40;99.90;;;;;;5028627;28;20192;-66
2022/09/02 06:28:34;;;;;;;;;;;17.40;99.90;;;;;;5033622;28;20214;-65
2022/09/02 06:31:08;;;;;;;;;;;17.40;99.90;;;;;;5031088;28;20278;-65
2022/09/02 06:33:36;;;;;;;;;;;17.40;99.90;;;;;;5039203;28;20090;-68
2022/09/02 06:36:06;;;;;;;;;;;17.40;99.90;;;;;;5047095;28;20268;-68
2022/09/02 06:38:36;;;;;;;;;;;17.50;99.90;;;;;;5055420;28;20198;-68
2022/09/02 06:41:04;;;;;;;;;;;17.50;99.90;;;;;;5054032;28;20196;-68
2022/09/02 06:43:32;;;;;;;;;;;17.60;99.90;;;;;;5054789;28;20295;-68
2022/09/02 06:46:16;;;;;;;;;;;17.60;99.90;;;;;;5052903;28;20698;-68
2022/09/02 06:48:43;;;;;;;;;;;17.60;99.90;;;;;;5043527;28;20581;-69
2022/09/02 06:51:15;;;;;;;;;;;17.70;99.90;;;;;;5058727;28;20202;-68
2022/09/02 06:53:43;;;;;;;;;;;17.80;99.90;;;;;;5055074;28;20709;-68
2022/09/02 06:56:11;;;;;;;;;;;17.90;99.90;;;;;;5053825;28;20260;-68
2022/09/02 06:58:39;;;;;;;;;;;18.00;99.90;;;;;;5054941;28;20576;-68
2022/09/02 07:01:07;;;;;;;;;;;18.20;99.90;;;;;;5052322;28;20198;-68
2022/09/02 07:06:21;;;;;;;;;;;18.40;99.90;;;;;;5054663;28;20678;-68
2022/09/02 07:08:49;;;;;;;;;;;18.50;99.90;;;;;;5047541;28;20202;-68
2022/09/02 07:11:18;;;;;;;;;;;18.50;99.90;;;;;;5052349;28;20209;-68
2022/09/02 07:13:45;;;;;;;;;;;18.70;99.90;;;;;;5047183;28;20190;-69
2022/09/02 07:16:14;;;;;;;;;;;18.70;99.90;;;;;;5054305;28;20250;-68
2022/09/02 07:18:55;;;;;;;;;;;18.60;99.90;;;;;;5051755;28;20624;-67
2022/09/02 07:21:23;;;;;;;;;;;18.70;99.90;;;;;;5054262;28;20079;-68
2022/09/02 07:23:50;;;;;;;;;;;18.80;99.90;;;;;;5053462;28;20264;-68
2022/09/02 07:26:21;;;;;;;;;;;18.90;99.90;;;;;;5048978;28;20196;-68
2022/09/02 07:28:48;;;;;;;;;;;19.00;99.90;;;;;;5054422;28;20216;-68
2022/09/02 07:31:16;;;;;;;;;;;19.20;99.90;;;;;;5040688;28;20219;-68
2022/09/02 07:33:45;;;;;;;;;;;19.30;99.90;;;;;;5033099;28;20306;-68
2022/09/02 07:36:20;;;;;;;;;;;19.40;99.90;;;;;;5042714;28;20213;-68
2022/09/02 07:38:48;;;;;;;;;;;19.60;99.90;;;;;;5054281;28;20197;-68
2022/09/02 07:41:16;;;;;;;;;;;19.80;99.90;;;;;;5047615;28;20207;-68
2022/09/02 07:43:44;;;;;;;;;;;19.90;99.90;;;;;;5046419;28;20202;-69
2022/09/02 07:46:18;;;;;;;;;;;20.10;99.90;;;;;;5053750;28;20202;-71
2022/09/02 07:48:48;;;;;;;;;;;20.10;99.90;;;;;;5053126;28;20277;-70
2022/09/02 07:51:19;;;;;;;;;;;20.20;99.90;;;;;;5045893;28;20203;-71
2022/09/02 07:53:46;;;;;;;;;;;20.20;99.90;;;;;;5053893;28;20713;-70
2022/09/02 07:56:14;;;;;;;;;;;20.30;99.90;;;;;;5052879;28;20198;-70
2022/09/02 07:58:42;;;;;;;;;;;20.40;99.90;;;;;;5047636;28;20605;-71
2022/09/02 08:01:11;;;;;;;;;;;20.70;99.70;;;;;;5053570;28;20241;-70
2022/09/02 08:03:39;;;;;;;;;;;20.90;99.90;;;;;;5051427;28;20190;-70
2022/09/02 08:06:07;;;;;;;;;;;21.10;99.50;;;;;;5053490;28;20205;-70
2022/09/02 08:08:36;;;;;;;;;;;21.30;99.00;;;;;;5048472;28;20222;-69
2022/09/02 08:11:05;;;;;;;;;;;21.40;98.90;;;;;;5046244;28;20210;-70
2022/09/02 08:13:33;;;;;;;;;;;21.60;98.70;;;;;;5053324;28;20191;-70
2022/09/02 08:16:01;;;;;;;;;;;21.80;98.40;;;;;;5046398;28;20203;-70
2022/09/02 08:18:30;;;;;;;;;;;21.90;98.20;;;;;;5052425;28;20206;-70
2022/09/02 08:20:57;;;;;;;;;;;22.10;97.80;;;;;;5052220;28;20197;-70
2022/09/02 08:23:25;;;;;;;;;;;22.10;97.90;;;;;;5053183;28;20199;-70
2022/09/02 08:26:06;;;;;;;;;;;22.30;97.60;;;;;;5049226;28;20248;-70
2022/09/02 08:28:34;;;;;;;;;;;22.40;97.20;;;;;;5053184;28;20199;-68
2022/09/02 08:31:04;;;;;;;;;;;22.50;97.10;;;;;;5051746;28;20252;-68
2022/09/02 08:33:32;;;;;;;;;;;22.60;96.60;;;;;;5053347;28;20196;-68
2022/09/02 08:36:01;;;;;;;;;;;22.80;97.00;;;;;;5052090;28;20209;-68
2022/09/02 08:38:29;;;;;;;;;;;22.90;96.60;;;;;;5051837;28;20210;-68
2022/09/02 08:40:57;;;;;;;;;;;23.00;96.20;;;;;;5052726;28;20198;-68
2022/09/02 08:43:31;;;;;;;;;;;23.00;95.90;;;;;;5050905;28;20293;-68
2022/09/02 08:46:04;;;;;;;;;;;23.10;95.60;;;;;;5051414;28;20198;-68
2022/09/02 08:48:34;;;;;;;;;;;23.10;95.70;;;;;;5052934;28;20203;-70
2022/09/02 08:51:04;;;;;;;;;;;23.10;95.40;;;;;;5047629;28;20206;-70
2022/09/02 08:53:36;;;;;;;;;;;23.10;95.50;;;;;;5052624;28;20187;-68
2022/09/02 08:56:05;;;;;;;;;;;23.40;95.50;;;;;;5045834;28;20206;-68
2022/09/02 08:58:38;;;;;;;;;;;23.50;94.80;;;;;;5052200;28;20202;-69
2022/09/02 09:01:10;;;;;;;;;;;23.80;94.40;;;;;;5051308;28;20209;-68
2022/09/02 09:03:43;;;;;;;;;;;24.00;94.00;;;;;;5052366;28;20186;-68
2022/09/02 09:06:14;;;;;;;;;;;24.10;93.50;;;;;;5050894;28;20214;-68
2022/09/02 09:08:46;;;;;;;;;;;24.20;94.00;;;;;;5045284;28;20206;-68
2022/09/02 09:11:19;;;;;;;;;;;24.40;93.80;;;;;;5067273;23;20209;-63
2022/09/02 09:14:08;;;;;;;;;;;24.30;93.20;;;;;;5031521;28;20203;-65
2022/09/02 09:16:44;;;;;;;;;;;24.40;93.00;;;;;;5028362;28;20257;-66
2022/09/02 09:19:13;;;;;;;;;;;24.40;93.40;;;;;;5031475;28;20216;-66
2022/09/02 09:21:42;;;;;;;;;;;24.50;91.90;;;;;;5026764;28;20200;-66
2022/09/02 09:24:18;;;;;;;;;;;24.70;92.00;;;;;;5012397;28;20187;-66
2022/09/02 09:26:47;;;;;;;;;;;25.20;91.50;;;;;;5006014;28;20197;-66
2022/09/02 09:29:14;;;;;;;;;;;25.10;91.20;;;;;;5012186;28;20222;-67
2022/09/02 09:31:44;;;;;;;;;;;25.10;90.80;;;;;;5000146;28;20211;-65
2022/09/02 09:34:12;;;;;;;;;;;25.20;91.40;;;;;;5009291;28;20202;-65
2022/09/02 09:36:44;;;;;;;;;;;25.20;91.00;;;;;;5011330;28;20249;-67
2022/09/02 09:39:17;;;;;;;;;;;25.20;90.60;;;;;;5008616;28;20199;-67
2022/09/02 09:41:45;;;;;;;;;;;25.30;90.80;;;;;;5005090;28;20203;-66
2022/09/02 09:44:28;;;;;;;;;;;25.40;90.40;;;;;;5005653;28;20283;-66
2022/09/02 09:47:01;;;;;;;;;;;25.60;88.60;;;;;;4992298;28;20199;-68
2022/09/02 09:49:31;;;;;;;;;;;25.60;88.70;;;;;;4999424;28;20254;-66
2022/09/02 09:51:59;;;;;;;;;;;25.80;88.10;;;;;;5009776;28;20195;-67
2022/09/02 09:54:27;;;;;;;;;;;25.60;88.70;;;;;;5012296;28;20192;-68
2022/09/02 09:56:55;;;;;;;;;;;25.70;88.20;;;;;;5003418;28;20620;-67
2022/09/02 09:59:37;;;;;;;;;;;25.70;87.30;;;;;;5010634;28;20196;-67
2022/09/02 10:02:06;;;;;;;;;;;26.00;86.80;;;;;;5004027;28;20250;-66
2022/09/02 10:04:34;;;;;;;;;;;26.10;83.40;;;;;;5011740;28;20730;-67
2022/09/02 10:07:12;;;;;;;;;;;26.20;82.30;;;;;;5013166;28;20588;-67
2022/09/02 10:09:39;;;;;;;;;;;26.40;82.70;;;;;;5000511;28;20274;-67
2022/09/02 10:12:08;;;;;;;;;;;27.00;82.50;;;;;;5009764;28;20691;-67
2022/09/02 10:14:37;;;;;;;;;;;27.30;80.90;;;;;;5000499;28;20593;-67
2022/09/02 10:17:19;;;;;;;;;;;27.20;82.40;;;;;;5010208;28;20195;-66
2022/09/02 10:19:51;;;;;;;;;;;26.90;80.20;;;;;;4998418;28;20327;-67
2022/09/02 10:22:32;;;;;;;;;;;26.80;80.10;;;;;;4998707;28;20199;-66
2022/09/02 10:25:25;;;;;;;;;;;27.10;79.80;;;;;;5014473;28;20202;-66
2022/09/02 10:27:57;;;;;;;;;;;26.80;74.70;;;;;;5018441;28;20202;-68
2022/09/02 10:30:25;;;;;;;;;;;26.80;75.60;;;;;;5009423;28;20250;-67
2022/09/02 10:33:01;;;;;;;;;;;26.80;76.60;;;;;;5017934;28;20203;-68
2022/09/02 10:35:34;;;;;;;;;;;26.70;75.20;;;;;;5009365;28;20614;-67
2022/09/02 10:38:10;;;;;;;;;;;26.80;76.60;;;;;;5017436;28;20213;-67
2022/09/02 10:40:42;;;;;;;;;;;27.00;75.60;;;;;;5006916;28;20675;-67
2022/09/02 10:43:19;;;;;;;;;;;27.00;75.90;;;;;;5009994;28;20206;-66
2022/09/02 10:45:49;;;;;;;;;;;27.10;74.00;;;;;;4998746;28;20199;-66
2022/09/02 10:48:27;;;;;;;;;;;26.80;76.70;;;;;;5010084;28;20210;-66
2022/09/02 10:50:57;;;;;;;;;;;26.90;75.60;;;;;;5016729;28;20611;-66
2022/09/02 10:53:42;;;;;;;;;;;27.00;75.20;;;;;;5018048;28;20672;-67
2022/09/02 10:56:13;;;;;;;;;;;27.30;74.70;;;;;;5017274;28;20206;-66
2022/09/02 10:58:45;;;;;;;;;;;27.20;73.00;;;;;;4998739;28;20231;-67
2022/09/02 11:01:16;;;;;;;;;;;27.30;74.40;;;;;;5007468;28;20206;-67
2022/09/02 11:03:49;;;;;;;;;;;27.60;74.40;;;;;;5018244;28;20199;-67
2022/09/02 11:06:20;;;;;;;;;;;27.70;73.30;;;;;;5009003;28;20207;-69
2022/09/02 11:08:50;;;;;;;;;;;27.80;73.40;;;;;;5018153;28;20203;-67
2022/09/02 11:11:20;;;;;;;;;;;27.70;73.90;;;;;;5008214;28;20261;-67
2022/09/02 11:13:54;;;;;;;;;;;27.80;74.20;;;;;;5016200;28;20267;-69
2022/09/02 11:16:24;;;;;;;;;;;27.80;73.80;;;;;;5013626;28;20751;-66
2022/09/02 11:18:56;;;;;;;;;;;27.90;73.40;;;;;;5008503;28;20207;-69
2022/09/02 11:21:31;;;;;;;;;;;27.70;72.80;;;;;;5012031;28;20283;-67
2022/09/02 11:24:02;;;;;;;;;;;27.80;72.70;;;;;;5009907;28;20621;-67
2022/09/02 11:26:37;;;;;;;;;;;27.60;72.30;;;;;;5011277;28;20255;-67
2022/09/02 11:29:07;;;;;;;;;;;27.00;73.70;;;;;;5009633;28;20238;-67
2022/09/02 11:31:37;;;;;;;;;;;26.70;74.70;;;;;;5014266;28;20203;-67
2022/09/02 11:34:11;;;;;;;;;;;26.60;73.60;;;;;;5010974;28;20192;-67
2022/09/02 11:36:40;;;;;;;;;;;26.90;74.50;;;;;;4995117;28;20575;-69
2022/09/02 11:39:10;;;;;;;;;;;27.10;72.90;;;;;;4998022;28;20219;-68
2022/09/02 11:41:49;;;;;;;;;;;27.30;73.70;;;;;;5006059;28;20253;-67
2022/09/02 11:44:40;;;;;;;;;;;27.10;71.90;;;;;;5005811;28;20310;-67
2022/09/02 11:47:30;;;;;;;;;;;27.20;72.60;;;;;;5011941;28;20345;-67
2022/09/02 11:50:09;;;;;;;;;;;27.30;73.30;;;;;;5013277;28;20278;-67
2022/09/02 11:52:52;;;;;;;;;;;27.30;72.00;;;;;;5006331;28;20195;-67
2022/09/02 11:55:22;;;;;;;;;;;27.60;72.80;;;;;;5012402;28;20250;-67
2022/09/02 11:57:53;;;;;;;;;;;28.00;71.40;;;;;;5007030;28;20195;-67
2022/09/02 12:00:28;;;;;;;;;;;28.10;71.80;;;;;;5013839;28;20203;-70
2022/09/02 12:02:59;;;;;;;;;;;28.10;72.40;;;;;;5007240;28;20200;-66
2022/09/02 12:05:48;;;;;;;;;;;28.00;71.70;;;;;;5004447;28;20202;-68
2022/09/02 12:08:43;;;;;;;;;;;28.30;71.40;;;;;;5014095;28;20206;-67
2022/09/02 12:11:36;;;;;;;;;;;28.20;70.40;;;;;;5004459;28;20213;-67
2022/09/02 12:14:05;;;;;;;;;;;28.30;69.50;;;;;;4992155;28;20219;-67
2022/09/02 12:16:36;;;;;;;;;;;28.40;69.90;;;;;;4982882;28;20294;-68
2022/09/02 12:19:17;;;;;;;;;;;28.30;70.90;;;;;;4986421;28;20208;-67
2022/09/02 12:22:00;;;;;;;;;;;27.90;70.00;;;;;;4987217;28;20819;-67
2022/09/02 12:24:47;;;;;;;;;;;27.40;71.30;;;;;;4984086;28;20857;-67
2022/09/02 12:27:25;;;;;;;;;;;27.30;71.20;;;;;;4993370;28;22502;-68
2022/09/02 12:29:53;;;;;;;;;;;27.70;72.30;;;;;;4992722;28;20222;-67
2022/09/02 12:32:43;;;;;;;;;;;28.20;70.80;;;;;;4992921;28;20227;-67
2022/09/02 12:35:13;;;;;;;;;;;28.70;70.20;;;;;;4984210;28;20198;-67
2022/09/02 12:37:50;;;;;;;;;;;29.20;70.00;;;;;;4994150;28;20209;-67
2022/09/02 12:40:33;;;;;;;;;;;29.50;68.10;;;;;;4985019;28;20724;-67
2022/09/02 12:43:04;;;;;;;;;;;29.90;67.50;;;;;;4993336;28;20232;-67
2022/09/02 12:45:32;;;;;;;;;;;30.20;68.40;;;;;;4984331;28;20211;-67
2022/09/02 12:48:06;;;;;;;;;;;30.20;67.60;;;;;;4993988;28;20204;-67
2022/09/02 12:50:49;;;;;;;;;;;30.10;66.20;;;;;;4984649;28;20191;-67
2022/09/02 12:53:34;;;;;;;;;;;29.50;66.30;;;;;;4992524;28;20195;-68
2022/09/02 12:56:05;;;;;;;;;;;29.30;66.50;;;;;;4993630;28;20207;-68
2022/09/02 12:58:35;;;;;;;;;;;29.70;67.40;;;;;;4992279;28;20207;-68
2022/09/02 13:01:17;;;;;;;;;;;29.60;66.00;;;;;;4993212;28;20596;-67
2022/09/02 13:03:50;;;;;;;;;;;29.90;66.70;;;;;;4977473;28;20210;-67
2022/09/02 13:06:22;;;;;;;;;;;30.10;65.10;;;;;;4989896;28;20192;-67
2022/09/02 13:09:09;;;;;;;;;;;30.30;65.40;;;;;;4993490;28;20257;-68
2022/09/02 13:11:52;;;;;;;;;;;30.20;65.50;;;;;;4983991;28;20239;-67
2022/09/02 13:14:35;;;;;;;;;;;30.50;66.10;;;;;;4993373;28;20207;-67
2022/09/02 13:17:14;;;;;;;;;;;30.20;65.90;;;;;;4982425;28;20203;-68
2022/09/02 13:20:23;;;;;;;;;;;30.20;66.00;;;;;;4988551;28;20261;-67
2022/09/02 13:23:18;;;;;;;;;;;29.90;65.40;;;;;;4975713;28;20214;-67
2022/09/02 13:26:12;;;;;;;;;;;29.70;64.60;;;;;;4987906;28;20198;-67
2022/09/02 13:29:15;;;;;;;;;;;29.60;64.20;;;;;;4986282;28;20239;-69
2022/09/02 13:31:59;;;;;;;;;;;29.60;65.50;;;;;;4985709;28;20204;-68
2022/09/02 13:34:28;;;;;;;;;;;30.10;65.20;;;;;;4984393;28;20669;-67
2022/09/02 13:36:56;;;;;;;;;;;30.60;64.30;;;;;;4992941;28;20582;-69
2022/09/02 13:39:25;;;;;;;;;;;30.60;63.90;;;;;;4983945;28;20275;-67
2022/09/02 13:41:53;;;;;;;;;;;30.70;64.10;;;;;;4991784;28;20196;-67
2022/09/02 13:44:22;;;;;;;;;;;31.00;62.60;;;;;;4991686;28;20210;-67
2022/09/02 13:46:50;;;;;;;;;;;31.40;62.90;;;;;;4992432;28;20200;-68
2022/09/02 13:49:20;;;;;;;;;;;31.00;62.50;;;;;;4992081;28;20231;-67
2022/09/02 13:51:51;;;;;;;;;;;30.90;60.90;;;;;;4991801;28;20597;-68
2022/09/02 13:54:26;;;;;;;;;;;30.50;61.30;;;;;;4983714;28;20235;-67
2022/09/02 13:56:54;;;;;;;;;;;30.70;62.40;;;;;;4992665;28;20235;-67
2022/09/02 13:59:31;;;;;;;;;;;30.90;61.10;;;;;;4983043;28;20246;-68
2022/09/02 14:01:58;;;;;;;;;;;30.90;61.60;;;;;;4992320;28;20579;-67
2022/09/02 14:04:27;;;;;;;;;;;31.10;61.20;;;;;;4983791;28;20804;-67
2022/09/02 14:06:56;;;;;;;;;;;30.70;60.40;;;;;;4992650;28;20222;-68
2022/09/02 14:09:25;;;;;;;;;;;30.00;60.80;;;;;;4979702;28;20204;-67
2022/09/02 14:11:53;;;;;;;;;;;30.00;61.40;;;;;;4982784;28;20261;-67
2022/09/02 14:14:22;;;;;;;;;;;30.10;61.80;;;;;;5002736;28;20207;-67
2022/09/02 14:16:51;;;;;;;;;;;30.50;62.20;;;;;;5010175;28;20191;-67
2022/09/02 14:19:25;;;;;;;;;;;31.00;61.20;;;;;;5003920;28;20204;-69
2022/09/02 14:21:54;;;;;;;;;;;30.60;60.80;;;;;;5011095;28;20204;-67
2022/09/02 14:24:24;;;;;;;;;;;30.40;60.80;;;;;;5003563;28;20195;-69
2022/09/02 14:26:53;;;;;;;;;;;30.10;60.80;;;;;;5011193;28;20279;-68
2022/09/02 14:29:21;;;;;;;;;;;30.10;60.60;;;;;;5003812;28;20698;-67
2022/09/02 14:32:02;;;;;;;;;;;30.40;60.80;;;;;;5005655;28;20204;-68
2022/09/02 14:34:34;;;;;;;;;;;30.40;61.20;;;;;;5011204;28;20206;-68
2022/09/02 14:37:14;;;;;;;;;;;30.80;61.20;;;;;;5008033;28;20245;-67
2022/09/02 14:39:52;;;;;;;;;;;30.70;60.20;;;;;;5004446;28;20690;-67
2022/09/02 14:42:20;;;;;;;;;;;30.80;60.50;;;;;;5003351;28;20192;-68
2022/09/02 14:44:48;;;;;;;;;;;30.50;60.30;;;;;;5011091;28;20602;-66